Time;durP1;ratioP1;P1;durP2;ratioP2;P2;SDS_P1;SDS_P2;PMS_P1;PMS_P2;Temp;Humidity;BMP_temperature;BMP_pressure;BME280_temperature;BME280_humidity;BME280_pressure;Samples;Min_cycle;Max_cycle;Signal;HPM_P1;HPM_P2
2023/12/13 00:02:14;;;;;;;0.35;0.10;;;11.10;91.30;;;;;;5007271;28;20371;-65
2023/12/13 00:04:40;;;;;;;2.00;0.20;;;11.10;91.30;;;;;;5007232;28;20045;-65
2023/12/13 00:07:05;;;;;;;0.70;0.22;;;11.10;91.20;;;;;;5007522;28;20034;-65
2023/12/13 00:09:31;;;;;;;0.60;0.10;;;11.10;91.20;;;;;;5005038;28;20038;-65
2023/12/13 00:11:56;;;;;;;0.25;0.10;;;11.00;91.20;;;;;;5008009;28;20508;-65
2023/12/13 00:14:22;;;;;;;1.63;0.13;;;11.00;91.10;;;;;;5007090;28;20042;-65
2023/12/13 00:16:48;;;;;;;0.43;0.10;;;11.00;91.10;;;;;;5007101;28;20033;-65
2023/12/13 00:19:13;;;;;;;1.73;0.20;;;11.00;91.00;;;;;;5007207;28;20394;-65
2023/12/13 00:21:39;;;;;;;0.30;0.10;;;11.00;90.80;;;;;;5006069;28;20583;-65
2023/12/13 00:24:06;;;;;;;0.28;0.10;;;11.00;90.50;;;;;;5004956;28;20074;-65
2023/12/13 00:26:31;;;;;;;1.17;0.10;;;11.00;90.40;;;;;;5006705;28;20446;-65
2023/12/13 00:28:57;;;;;;;0.30;0.10;;;11.00;90.40;;;;;;5011670;28;20172;-65
2023/12/13 00:31:22;;;;;;;0.20;0.10;;;11.00;90.30;;;;;;5009920;28;20056;-65
2023/12/13 00:33:48;;;;;;;0.30;0.10;;;10.90;90.20;;;;;;5008347;28;20101;-65
2023/12/13 00:36:14;;;;;;;0.85;0.10;;;10.90;90.10;;;;;;5009993;28;20682;-65
2023/12/13 00:38:40;;;;;;;1.45;0.10;;;10.90;90.10;;;;;;5009142;28;20033;-64
2023/12/13 00:41:05;;;;;;;1.58;0.17;;;10.90;90.00;;;;;;5009223;28;20034;-65
2023/12/13 00:43:32;;;;;;;0.75;0.20;;;10.80;90.00;;;;;;5008813;28;20022;-64
2023/12/13 00:45:57;;;;;;;0.30;0.10;;;10.80;90.00;;;;;;5009759;28;20029;-65
2023/12/13 00:48:23;;;;;;;1.00;0.30;;;10.80;90.00;;;;;;5008996;28;20048;-65
2023/12/13 00:50:48;;;;;;;0.98;0.10;;;10.80;89.90;;;;;;5009206;28;20501;-65
2023/12/13 00:53:14;;;;;;;2.42;0.10;;;10.80;89.90;;;;;;5008643;28;20121;-65
2023/12/13 00:55:40;;;;;;;0.73;0.10;;;10.70;89.90;;;;;;5008448;28;20061;-65
2023/12/13 00:58:05;;;;;;;0.95;0.10;;;10.70;89.70;;;;;;5009503;28;20034;-65
2023/12/13 01:00:31;;;;;;;2.20;0.20;;;10.70;89.50;;;;;;5008451;28;20034;-65
2023/12/13 01:02:57;;;;;;;1.35;0.22;;;10.60;89.60;;;;;;5010070;28;20454;-65
2023/12/13 01:05:22;;;;;;;1.95;0.17;;;10.60;89.60;;;;;;5008615;28;20141;-65
2023/12/13 01:07:48;;;;;;;2.22;0.30;;;10.60;89.50;;;;;;5007710;28;20030;-65
2023/12/13 01:10:14;;;;;;;0.73;0.10;;;10.50;89.30;;;;;;5009042;28;20096;-65
2023/12/13 01:12:42;;;;;;;0.40;0.10;;;10.50;89.50;;;;;;5009444;28;20095;-65
2023/12/13 01:15:10;;;;;;;2.65;0.30;;;10.40;89.50;;;;;;5009186;28;20033;-65
2023/12/13 01:17:36;;;;;;;2.50;0.40;;;10.40;89.80;;;;;;5008409;28;20620;-65
2023/12/13 01:20:02;;;;;;;1.08;0.20;;;10.40;90.00;;;;;;5008777;28;20129;-65
2023/12/13 01:22:27;;;;;;;0.73;0.10;;;10.30;90.00;;;;;;5008830;28;20036;-65
2023/12/13 01:24:53;;;;;;;0.70;0.10;;;10.30;90.00;;;;;;5005514;28;20034;-65
2023/12/13 01:27:19;;;;;;;0.73;0.03;;;10.30;90.00;;;;;;5008887;28;20038;-65
2023/12/13 01:29:44;;;;;;;0.98;0.20;;;10.30;90.10;;;;;;5007538;28;20050;-65
2023/12/13 01:32:10;;;;;;;2.30;0.10;;;10.30;90.10;;;;;;5008726;28;20034;-65
2023/12/13 01:34:36;;;;;;;0.63;0.13;;;10.30;90.10;;;;;;5008468;28;20049;-65
2023/12/13 01:37:02;;;;;;;0.35;0.10;;;10.20;90.10;;;;;;5009489;28;20343;-65
2023/12/13 01:39:27;;;;;;;1.10;0.20;;;10.20;90.10;;;;;;5006506;28;20065;-65
2023/12/13 01:41:53;;;;;;;0.60;0.10;;;10.20;90.10;;;;;;5007048;28;20069;-65
2023/12/13 01:44:19;;;;;;;1.92;0.10;;;10.20;90.20;;;;;;5008822;28;20029;-64
2023/12/13 01:46:46;;;;;;;0.40;0.13;;;10.20;90.20;;;;;;5008418;28;20034;-65
2023/12/13 01:49:12;;;;;;;1.05;0.20;;;10.10;90.20;;;;;;5008402;28;20069;-65
2023/12/13 01:51:39;;;;;;;1.15;0.10;;;10.10;90.20;;;;;;5007636;28;20062;-65
2023/12/13 01:54:08;;;;;;;1.42;0.10;;;10.10;90.20;;;;;;5009073;28;20038;-65
2023/12/13 01:56:34;;;;;;;1.13;0.40;;;10.10;90.20;;;;;;5007687;28;20570;-64
2023/12/13 01:59:00;;;;;;;0.98;0.20;;;10.00;90.30;;;;;;5007847;28;20065;-65
2023/12/13 02:01:26;;;;;;;0.35;0.08;;;10.00;90.30;;;;;;5005653;28;20092;-65
2023/12/13 02:03:52;;;;;;;0.80;0.20;;;10.00;90.30;;;;;;4999110;28;20034;-65
2023/12/13 02:06:18;;;;;;;1.23;0.30;;;10.00;90.30;;;;;;5008257;28;20038;-65
2023/12/13 02:08:43;;;;;;;1.73;0.10;;;10.00;90.30;;;;;;5007824;28;20096;-65
2023/12/13 02:11:09;;;;;;;0.85;0.10;;;10.00;90.20;;;;;;5008808;28;20038;-65
2023/12/13 02:13:35;;;;;;;0.45;0.10;;;10.00;90.20;;;;;;5007984;28;20460;-64
2023/12/13 02:16:01;;;;;;;2.35;0.17;;;9.90;90.20;;;;;;5007514;28;20034;-64
2023/12/13 02:18:27;;;;;;;1.80;0.10;;;9.90;90.20;;;;;;5007030;28;20034;-65
2023/12/13 02:20:53;;;;;;;0.20;0.00;;;9.90;90.20;;;;;;5002045;28;20044;-64
2023/12/13 02:23:19;;;;;;;0.60;0.10;;;9.90;90.30;;;;;;4988188;28;20034;-64
2023/12/13 02:25:52;;;;;;;0.55;0.00;;;9.80;90.30;;;;;;5006820;28;20034;-65
2023/12/13 02:28:18;;;;;;;0.95;0.10;;;9.80;90.30;;;;;;5008436;28;20049;-65
2023/12/13 02:30:46;;;;;;;0.13;0.00;;;9.80;90.40;;;;;;5007247;28;20038;-65
2023/12/13 02:33:11;;;;;;;1.92;0.17;;;9.80;90.50;;;;;;5007849;28;20262;-64
2023/12/13 02:35:37;;;;;;;0.82;0.10;;;9.80;90.50;;;;;;4989256;28;20046;-65
2023/12/13 02:38:02;;;;;;;0.20;0.00;;;9.70;90.50;;;;;;5008102;28;20045;-65
2023/12/13 02:40:28;;;;;;;0.90;0.08;;;9.70;90.60;;;;;;5007278;28;20038;-64
2023/12/13 02:42:54;;;;;;;1.38;0.10;;;9.70;90.60;;;;;;5006427;28;20580;-65
2023/12/13 02:45:20;;;;;;;0.40;0.10;;;9.70;90.70;;;;;;5007570;28;20072;-65
2023/12/13 02:47:46;;;;;;;1.05;0.00;;;9.70;90.70;;;;;;5006657;28;20036;-64
2023/12/13 02:50:12;;;;;;;0.85;0.05;;;9.70;90.70;;;;;;5006949;28;20034;-65
2023/12/13 02:52:39;;;;;;;0.95;0.10;;;9.80;90.70;;;;;;5007525;28;20152;-65
2023/12/13 02:55:06;;;;;;;0.30;0.10;;;9.80;90.70;;;;;;5007404;28;20041;-65
2023/12/13 02:57:31;;;;;;;0.38;0.10;;;9.80;90.80;;;;;;5006538;28;20030;-65
2023/12/13 02:59:57;;;;;;;0.30;0.08;;;9.80;90.80;;;;;;5007589;28;20033;-65
2023/12/13 03:02:22;;;;;;;2.05;0.10;;;9.80;90.80;;;;;;5007671;28;20037;-64
2023/12/13 03:04:48;;;;;;;0.30;0.28;;;9.80;90.80;;;;;;5006883;28;20518;-64
2023/12/13 03:07:14;;;;;;;1.35;0.30;;;9.80;90.80;;;;;;5007116;28;20033;-65
2023/12/13 03:09:39;;;;;;;1.98;0.20;;;9.80;90.80;;;;;;5006311;28;20140;-64
2023/12/13 03:12:06;;;;;;;0.28;0.20;;;9.80;90.80;;;;;;5007398;28;20513;-64
2023/12/13 03:14:32;;;;;;;0.52;0.30;;;9.80;90.80;;;;;;5005854;28;20038;-63
2023/12/13 03:16:57;;;;;;;0.30;0.20;;;9.80;90.90;;;;;;5006851;28;20033;-64
2023/12/13 03:19:23;;;;;;;0.73;0.40;;;9.80;90.90;;;;;;5007471;28;20091;-64
2023/12/13 03:21:49;;;;;;;1.00;0.50;;;9.80;90.90;;;;;;5006491;28;20510;-64
2023/12/13 03:24:14;;;;;;;1.17;0.40;;;9.80;90.90;;;;;;5004534;28;20379;-64
2023/12/13 03:26:40;;;;;;;2.55;0.40;;;9.80;90.90;;;;;;5006887;28;20038;-64
2023/12/13 03:29:06;;;;;;;1.20;0.40;;;9.80;90.90;;;;;;5006951;28;20045;-64
2023/12/13 03:31:31;;;;;;;0.93;0.30;;;9.70;90.90;;;;;;5004643;28;20054;-64
2023/12/13 03:33:57;;;;;;;0.60;0.30;;;9.80;90.90;;;;;;5006362;28;20041;-64
2023/12/13 03:36:22;;;;;;;1.65;0.30;;;9.70;90.90;;;;;;5007397;28;20557;-65
2023/12/13 03:38:48;;;;;;;1.40;0.30;;;9.70;90.90;;;;;;5008013;28;20034;-65
2023/12/13 03:41:14;;;;;;;0.75;0.40;;;9.70;90.90;;;;;;5003016;28;20034;-64
2023/12/13 03:43:39;;;;;;;1.75;0.20;;;9.70;91.00;;;;;;5001839;28;20371;-64
2023/12/13 03:46:06;;;;;;;0.47;0.30;;;9.70;91.00;;;;;;5007675;28;20529;-64
2023/12/13 03:48:31;;;;;;;0.82;0.38;;;9.70;91.00;;;;;;5005696;28;20038;-64
2023/12/13 03:50:57;;;;;;;1.83;0.40;;;9.60;91.00;;;;;;5007061;28;20544;-64
2023/12/13 03:53:23;;;;;;;1.38;0.20;;;9.60;91.00;;;;;;5007435;28;20030;-64
2023/12/13 03:55:48;;;;;;;0.60;0.20;;;9.60;91.00;;;;;;5006956;28;20038;-64
2023/12/13 03:58:14;;;;;;;0.73;0.32;;;9.60;91.00;;;;;;5007322;28;20453;-64
2023/12/13 04:00:40;;;;;;;1.45;0.30;;;9.60;91.00;;;;;;5007063;28;20397;-64
2023/12/13 04:03:05;;;;;;;0.38;0.30;;;9.60;91.00;;;;;;4993554;28;20501;-64
2023/12/13 04:05:31;;;;;;;0.65;0.30;;;9.60;91.00;;;;;;5007792;28;20033;-64
2023/12/13 04:07:57;;;;;;;0.75;0.20;;;9.60;90.90;;;;;;5007647;28;20038;-64
2023/12/13 04:10:22;;;;;;;2.08;0.47;;;9.60;90.80;;;;;;5009836;28;20505;-64
2023/12/13 04:12:48;;;;;;;1.63;0.28;;;9.60;90.80;;;;;;5010311;28;20077;-64
2023/12/13 04:15:13;;;;;;;0.95;0.40;;;9.60;90.80;;;;;;5010315;28;20053;-64
2023/12/13 04:17:39;;;;;;;1.95;0.40;;;9.60;90.80;;;;;;5009593;28;20481;-64
2023/12/13 04:20:05;;;;;;;1.15;0.40;;;9.60;90.80;;;;;;5009693;28;20113;-64
2023/12/13 04:22:31;;;;;;;0.52;0.40;;;9.70;90.70;;;;;;5008586;28;20045;-64
2023/12/13 04:24:57;;;;;;;0.90;0.50;;;9.70;90.60;;;;;;5007524;28;20038;-64
2023/12/13 04:27:23;;;;;;;2.95;0.70;;;9.60;90.60;;;;;;5006425;28;20034;-64
2023/12/13 04:29:48;;;;;;;0.90;0.60;;;9.50;90.70;;;;;;5005849;28;20359;-64
2023/12/13 04:32:14;;;;;;;1.20;0.40;;;9.50;90.80;;;;;;5009844;28;20109;-65
2023/12/13 04:34:39;;;;;;;1.88;0.50;;;9.50;90.90;;;;;;5010669;28;20034;-64
2023/12/13 04:37:05;;;;;;;0.95;0.50;;;9.50;91.00;;;;;;5010591;28;20042;-65
2023/12/13 04:39:30;;;;;;;0.82;0.50;;;9.50;91.10;;;;;;5009099;28;20760;-64
2023/12/13 04:41:56;;;;;;;3.38;0.70;;;9.40;91.20;;;;;;5007115;28;20122;-64
2023/12/13 04:44:27;;;;;;;1.80;0.60;;;9.40;91.20;;;;;;5009179;28;20385;-64
2023/12/13 04:46:53;;;;;;;1.23;0.75;;;9.40;91.30;;;;;;5009848;28;20593;-65
2023/12/13 04:49:19;;;;;;;1.65;0.60;;;9.40;91.30;;;;;;5010012;28;20042;-63
2023/12/13 04:51:45;;;;;;;0.63;0.63;;;9.40;91.30;;;;;;5009004;28;20052;-64
2023/12/13 04:54:10;;;;;;;1.27;0.52;;;9.40;91.40;;;;;;5010228;28;20026;-64
2023/12/13 04:56:36;;;;;;;0.77;0.55;;;9.40;91.40;;;;;;5009612;28;20042;-65
2023/12/13 04:59:02;;;;;;;1.48;0.68;;;9.40;91.40;;;;;;5010639;28;20425;-64
2023/12/13 05:01:27;;;;;;;1.05;0.60;;;9.40;91.50;;;;;;5008964;28;20088;-64
2023/12/13 05:03:53;;;;;;;1.65;1.00;;;9.40;91.50;;;;;;5009978;28;20057;-64
2023/12/13 05:06:19;;;;;;;2.40;1.05;;;9.40;91.50;;;;;;5009638;28;20034;-65
2023/12/13 05:08:46;;;;;;;1.58;0.98;;;9.40;91.50;;;;;;5009183;28;20153;-64
2023/12/13 05:11:11;;;;;;;1.35;0.90;;;9.40;91.40;;;;;;5008726;28;20125;-64
2023/12/13 05:13:37;;;;;;;2.20;0.80;;;9.40;91.30;;;;;;4990034;28;20113;-65
2023/12/13 05:16:03;;;;;;;2.28;0.77;;;9.40;91.20;;;;;;5009685;28;20057;-64
2023/12/13 05:18:29;;;;;;;0.95;0.70;;;9.40;91.20;;;;;;5003637;28;20096;-65
2023/12/13 05:20:55;;;;;;;1.45;0.70;;;9.30;91.00;;;;;;5011051;28;20041;-64
2023/12/13 05:23:20;;;;;;;1.10;0.65;;;9.30;91.00;;;;;;5009058;28;20069;-64
2023/12/13 05:25:46;;;;;;;1.20;0.70;;;9.30;90.90;;;;;;5003869;28;20082;-64
2023/12/13 05:28:12;;;;;;;1.00;0.60;;;9.30;90.90;;;;;;5006917;28;20060;-64
2023/12/13 05:30:37;;;;;;;3.13;0.60;;;9.30;90.90;;;;;;5009333;28;20080;-64
2023/12/13 05:33:03;;;;;;;1.23;0.80;;;9.20;91.00;;;;;;5009729;28;20080;-64
2023/12/13 05:35:29;;;;;;;1.55;0.70;;;9.20;91.10;;;;;;5009828;28;20064;-64
2023/12/13 05:37:54;;;;;;;1.63;0.70;;;9.20;91.20;;;;;;5009499;28;20029;-65
2023/12/13 05:40:20;;;;;;;1.67;0.98;;;9.20;91.20;;;;;;5009045;28;20113;-64
2023/12/13 05:42:45;;;;;;;2.22;1.52;;;9.20;91.10;;;;;;5009582;28;20483;-64
2023/12/13 05:45:13;;;;;;;2.00;1.65;;;9.20;91.10;;;;;;5009391;28;20394;-64
2023/12/13 05:47:39;;;;;;;3.45;2.60;;;9.20;91.00;;;;;;5009261;28;20081;-65
2023/12/13 05:50:05;;;;;;;4.75;2.40;;;9.10;91.00;;;;;;5009274;28;20030;-65
2023/12/13 05:52:34;;;;;;;4.22;2.35;;;9.10;90.90;;;;;;5008715;28;20497;-65
2023/12/13 05:54:59;;;;;;;2.30;2.10;;;9.10;90.90;;;;;;5009683;28;20301;-64
2023/12/13 05:57:25;;;;;;;3.40;2.10;;;9.10;90.90;;;;;;5008363;28;20077;-63
2023/12/13 05:59:51;;;;;;;3.60;2.13;;;9.10;91.00;;;;;;5008613;28;20122;-64
2023/12/13 06:02:16;;;;;;;4.15;1.92;;;9.00;91.00;;;;;;5009020;28;20046;-64
2023/12/13 06:04:43;;;;;;;3.65;1.83;;;9.00;91.10;;;;;;5008795;28;20029;-65
2023/12/13 06:07:09;;;;;;;5.50;1.90;;;9.00;91.20;;;;;;5008944;28;20125;-64
2023/12/13 06:09:35;;;;;;;3.42;1.98;;;9.00;91.30;;;;;;5009103;28;20050;-64
2023/12/13 06:12:00;;;;;;;3.28;1.85;;;9.00;91.30;;;;;;5008824;28;20038;-64
2023/12/13 06:14:26;;;;;;;2.47;1.83;;;8.90;91.30;;;;;;5008907;28;20553;-64
2023/12/13 06:16:51;;;;;;;2.33;2.10;;;8.90;91.40;;;;;;5008818;28;20680;-64
2023/12/13 06:19:17;;;;;;;1.75;1.63;;;8.90;91.40;;;;;;5008413;28;20026;-64
2023/12/13 06:21:43;;;;;;;4.50;2.00;;;8.90;91.40;;;;;;5004351;28;20054;-64
2023/12/13 06:24:08;;;;;;;2.22;1.90;;;8.90;91.50;;;;;;5002518;28;20413;-64
2023/12/13 06:26:34;;;;;;;3.42;1.88;;;8.90;91.60;;;;;;5009284;28;20036;-64
2023/12/13 06:29:00;;;;;;;2.20;1.60;;;8.90;91.60;;;;;;5008573;28;20036;-64
2023/12/13 06:31:26;;;;;;;2.03;1.80;;;8.90;91.70;;;;;;5007605;28;20472;-64
2023/12/13 06:33:54;;;;;;;2.70;1.75;;;8.90;91.70;;;;;;5004048;28;20027;-64
2023/12/13 06:36:20;;;;;;;2.95;2.00;;;8.90;91.80;;;;;;5007027;28;20069;-65
2023/12/13 06:38:46;;;;;;;4.05;1.75;;;8.90;91.70;;;;;;4990932;28;20080;-65
2023/12/13 06:41:12;;;;;;;1.98;1.65;;;9.00;91.70;;;;;;5008008;28;20026;-64
2023/12/13 06:43:37;;;;;;;7.93;1.95;;;9.00;91.80;;;;;;5006218;28;20369;-64
2023/12/13 06:46:03;;;;;;;2.47;2.00;;;9.00;91.80;;;;;;5008362;28;20117;-64
2023/12/13 06:48:29;;;;;;;2.80;1.88;;;9.00;91.90;;;;;;5003642;28;20100;-64
2023/12/13 06:50:55;;;;;;;3.10;2.15;;;9.00;91.90;;;;;;5008069;28;20065;-64
2023/12/13 06:53:21;;;;;;;3.00;2.00;;;9.00;91.90;;;;;;5008375;28;20109;-64
2023/12/13 06:55:47;;;;;;;2.17;1.98;;;9.00;92.00;;;;;;5007825;28;20489;-64
2023/12/13 06:58:13;;;;;;;3.88;3.47;;;9.10;92.00;;;;;;5008373;28;20088;-64
2023/12/13 07:00:39;;;;;;;2.63;2.42;;;9.10;92.00;;;;;;5008477;28;20042;-64
2023/12/13 07:03:06;;;;;;;4.93;3.08;;;9.10;92.00;;;;;;5007716;28;20140;-64
2023/12/13 07:05:31;;;;;;;2.20;2.10;;;9.10;92.00;;;;;;5007586;28;20129;-65
2023/12/13 07:07:57;;;;;;;2.28;2.03;;;9.10;92.00;;;;;;5007993;28;20038;-64
2023/12/13 07:10:22;;;;;;;2.30;1.63;;;9.20;92.00;;;;;;4989775;28;20026;-64
2023/12/13 07:12:48;;;;;;;2.25;1.52;;;9.10;92.30;;;;;;5008100;28;20036;-64
2023/12/13 07:15:14;;;;;;;1.50;1.40;;;9.20;92.00;;;;;;5007972;28;20220;-64
2023/12/13 07:17:42;;;;;;;1.77;1.50;;;9.20;92.00;;;;;;5006954;28;20084;-64
2023/12/13 07:20:10;;;;;;;1.85;1.13;;;9.20;92.00;;;;;;5007335;28;20497;-65
2023/12/13 07:22:36;;;;;;;2.00;0.93;;;9.20;92.00;;;;;;5004415;28;20038;-64
2023/12/13 07:25:02;;;;;;;2.03;1.10;;;9.20;92.00;;;;;;5004815;28;20413;-64
2023/12/13 07:27:30;;;;;;;3.67;1.42;;;9.20;91.90;;;;;;5006963;28;20029;-64
2023/12/13 07:29:58;;;;;;;0.98;0.90;;;9.20;92.00;;;;;;5007546;28;20294;-64
2023/12/13 07:32:24;;;;;;;1.63;0.80;;;9.20;92.00;;;;;;5007373;28;20030;-64
2023/12/13 07:34:49;;;;;;;2.78;0.80;;;9.30;92.00;;;;;;5008563;28;20026;-64
2023/12/13 07:37:15;;;;;;;2.55;0.77;;;9.20;91.90;;;;;;5006961;28;20190;-64
2023/12/13 07:39:40;;;;;;;1.73;0.80;;;9.20;92.00;;;;;;5006511;28;20052;-64
2023/12/13 07:42:06;;;;;;;1.67;0.80;;;9.30;92.00;;;;;;5007378;28;20121;-64
2023/12/13 07:44:33;;;;;;;1.00;0.90;;;9.30;92.00;;;;;;5007376;28;20045;-65
2023/12/13 07:46:59;;;;;;;1.77;1.60;;;9.30;92.00;;;;;;5007528;28;20058;-64
2023/12/13 07:49:25;;;;;;;3.05;1.17;;;9.30;92.00;;;;;;5006825;28;20041;-63
2023/12/13 07:51:51;;;;;;;1.98;1.20;;;9.30;92.00;;;;;;5008079;28;20525;-64
2023/12/13 07:54:18;;;;;;;1.88;1.50;;;9.30;92.00;;;;;;5007405;28;20033;-65
2023/12/13 07:56:45;;;;;;;2.70;1.70;;;9.30;92.00;;;;;;5007350;28;20493;-64
2023/12/13 07:59:11;;;;;;;1.35;1.00;;;9.30;92.00;;;;;;5007248;28;20405;-65
2023/12/13 08:01:37;;;;;;;1.88;0.90;;;9.30;91.90;;;;;;5006093;28;20096;-64
2023/12/13 08:04:02;;;;;;;1.35;0.80;;;9.30;91.90;;;;;;5007456;28;20091;-65
2023/12/13 08:06:31;;;;;;;1.13;0.73;;;9.30;91.90;;;;;;5007185;28;20077;-65
2023/12/13 08:09:01;;;;;;;2.22;0.90;;;9.30;92.30;;;;;;5007315;28;20101;-64
2023/12/13 08:11:27;;;;;;;2.78;1.13;;;9.40;92.00;;;;;;5006333;28;20026;-65
2023/12/13 08:13:52;;;;;;;0.93;0.80;;;9.40;92.00;;;;;;5007110;28;20091;-64
2023/12/13 08:16:18;;;;;;;1.75;0.93;;;9.40;92.10;;;;;;5007127;28;20061;-65
2023/12/13 08:18:44;;;;;;;1.15;0.90;;;9.40;92.10;;;;;;5004011;28;20109;-65
2023/12/13 08:21:10;;;;;;;2.47;0.60;;;9.40;92.20;;;;;;5003836;28;20133;-64
2023/12/13 08:23:36;;;;;;;1.70;0.50;;;9.40;92.20;;;;;;4997766;28;20061;-65
2023/12/13 08:26:01;;;;;;;0.57;0.38;;;9.50;92.20;;;;;;5004928;28;20030;-65
2023/12/13 08:28:27;;;;;;;0.50;0.50;;;9.50;92.30;;;;;;5006813;28;20054;-65
2023/12/13 08:30:52;;;;;;;0.43;0.40;;;9.60;92.20;;;;;;5006811;28;20037;-64
2023/12/13 08:33:18;;;;;;;0.50;0.50;;;9.60;92.20;;;;;;5006948;28;20034;-64
2023/12/13 08:35:43;;;;;;;0.40;0.40;;;9.70;92.20;;;;;;5006659;28;20056;-65
2023/12/13 08:38:09;;;;;;;0.80;0.40;;;9.70;92.10;;;;;;5006930;28;20041;-64
2023/12/13 08:40:34;;;;;;;0.50;0.40;;;9.80;92.10;;;;;;5006329;28;20537;-65
2023/12/13 08:43:00;;;;;;;1.55;0.45;;;9.80;92.10;;;;;;5006597;28;20048;-64
2023/12/13 08:45:26;;;;;;;0.63;0.40;;;9.90;92.50;;;;;;5006171;28;20116;-65
2023/12/13 08:47:51;;;;;;;0.65;0.38;;;9.80;92.00;;;;;;5008846;28;20044;-65
2023/12/13 08:50:17;;;;;;;0.50;0.40;;;9.90;91.90;;;;;;5010557;28;20054;-65
2023/12/13 08:52:43;;;;;;;0.45;0.45;;;9.90;91.90;;;;;;5010373;28;20210;-64
2023/12/13 08:55:08;;;;;;;0.60;0.43;;;9.90;91.80;;;;;;5010600;28;20081;-65
2023/12/13 08:57:40;;;;;;;0.88;0.50;;;9.90;91.80;;;;;;5009665;28;20045;-65
2023/12/13 09:00:10;;;;;;;0.80;0.60;;;10.00;91.80;;;;;;5011053;28;20139;-65
2023/12/13 09:02:36;;;;;;;0.70;0.57;;;10.00;91.70;;;;;;5004691;28;20560;-64
2023/12/13 09:05:01;;;;;;;0.93;0.60;;;10.00;91.70;;;;;;5007495;28;20041;-65
2023/12/13 09:07:27;;;;;;;1.15;0.60;;;10.00;91.60;;;;;;5007433;28;20033;-64
2023/12/13 09:09:53;;;;;;;1.88;0.60;;;10.00;91.60;;;;;;5011265;28;20037;-65
2023/12/13 09:12:18;;;;;;;2.33;0.70;;;10.10;91.50;;;;;;5011183;28;20045;-65
2023/12/13 09:14:46;;;;;;;0.98;0.60;;;10.10;91.50;;;;;;5011239;28;20032;-65
2023/12/13 09:17:12;;;;;;;0.93;0.60;;;10.10;91.50;;;;;;5004753;28;20038;-64
2023/12/13 09:19:37;;;;;;;1.63;0.80;;;10.10;91.40;;;;;;5014634;28;20034;-65
2023/12/13 09:22:03;;;;;;;0.85;0.68;;;10.10;91.30;;;;;;5011350;28;20044;-65
2023/12/13 09:24:29;;;;;;;1.45;0.63;;;10.10;91.30;;;;;;5010124;28;20058;-65
2023/12/13 09:26:55;;;;;;;1.90;0.77;;;10.20;91.30;;;;;;5009091;28;20422;-65
2023/12/13 09:29:21;;;;;;;0.60;0.47;;;10.20;91.30;;;;;;5003834;28;20044;-65
2023/12/13 09:31:47;;;;;;;0.70;0.43;;;10.20;91.20;;;;;;5010208;28;20085;-65
2023/12/13 09:34:13;;;;;;;1.20;0.40;;;10.20;91.20;;;;;;5012026;28;20448;-65
2023/12/13 09:36:41;;;;;;;1.40;0.35;;;10.20;91.20;;;;;;5010613;28;20034;-64
2023/12/13 09:39:07;;;;;;;1.58;0.20;;;10.10;91.20;;;;;;5011051;28;20033;-65
2023/12/13 09:42:02;;;;;;;1.00;0.50;;;10.20;91.30;;;;;;5004506;28;20096;-65
2023/12/13 09:44:33;;;;;;;2.25;0.47;;;10.10;91.20;;;;;;5010471;28;20030;-65
2023/12/13 09:47:02;;;;;;;0.82;0.50;;;10.10;91.20;;;;;;5010933;28;20032;-65
2023/12/13 09:49:28;;;;;;;0.98;0.30;;;10.10;91.20;;;;;;5010287;28;20037;-65
2023/12/13 09:51:55;;;;;;;1.80;0.30;;;10.20;91.30;;;;;;5007319;28;20040;-65
2023/12/13 09:54:21;;;;;;;0.30;0.30;;;10.20;91.30;;;;;;5009031;28;20030;-65
2023/12/13 09:56:50;;;;;;;1.00;0.40;;;10.20;91.30;;;;;;5007124;28;20026;-65
2023/12/13 09:59:15;;;;;;;2.10;0.20;;;10.20;91.30;;;;;;5007561;28;20034;-65
2023/12/13 10:01:44;;;;;;;0.38;0.25;;;10.20;91.30;;;;;;5006510;28;20045;-65
2023/12/13 10:04:09;;;;;;;1.25;0.20;;;10.20;91.30;;;;;;5008337;28;20278;-65
2023/12/13 10:06:35;;;;;;;0.63;0.32;;;10.20;91.40;;;;;;5010170;28;20381;-65
2023/12/13 10:09:03;;;;;;;0.68;0.30;;;10.20;91.40;;;;;;5010086;28;20038;-65
2023/12/13 10:11:28;;;;;;;0.98;0.50;;;10.20;91.40;;;;;;5003835;28;20034;-65
2023/12/13 10:13:55;;;;;;;0.95;0.40;;;10.30;91.50;;;;;;5010297;28;20038;-64
2023/12/13 10:16:21;;;;;;;0.50;0.20;;;10.30;91.50;;;;;;5010373;28;20038;-65
2023/12/13 10:18:47;;;;;;;0.40;0.32;;;10.30;91.40;;;;;;5004339;28;20028;-65
2023/12/13 10:21:15;;;;;;;0.60;0.32;;;10.40;91.40;;;;;;5009354;28;20041;-65
2023/12/13 10:23:44;;;;;;;1.42;0.30;;;10.40;91.40;;;;;;5008695;28;20080;-65
2023/12/13 10:26:12;;;;;;;0.80;0.35;;;10.40;91.30;;;;;;5008734;28;20397;-64
2023/12/13 10:28:38;;;;;;;1.10;0.30;;;10.40;91.20;;;;;;5009974;28;20033;-65
2023/12/13 10:31:04;;;;;;;0.75;0.50;;;10.40;91.20;;;;;;5009736;28;20030;-65
2023/12/13 10:33:30;;;;;;;0.30;0.30;;;10.40;91.20;;;;;;5008949;28;20042;-65
2023/12/13 10:35:58;;;;;;;0.43;0.30;;;10.50;91.20;;;;;;4992503;28;20041;-65
2023/12/13 10:38:26;;;;;;;0.60;0.20;;;10.40;91.10;;;;;;5009722;28;20109;-64
2023/12/13 10:40:52;;;;;;;0.20;0.20;;;10.50;91.10;;;;;;5009964;28;20126;-64
2023/12/13 10:43:20;;;;;;;0.30;0.13;;;10.50;91.10;;;;;;5003247;28;20407;-65
2023/12/13 10:46:05;;;;;;;0.50;0.20;;;10.50;91.00;;;;;;5008715;28;20044;-65
2023/12/13 10:48:37;;;;;;;0.38;0.25;;;10.60;90.80;;;;;;5006531;28;20037;-64
2023/12/13 10:51:03;;;;;;;0.88;0.20;;;10.60;90.90;;;;;;5009377;28;20041;-65
2023/12/13 10:53:39;;;;;;;0.30;0.20;;;10.60;90.80;;;;;;5008815;28;20497;-64
2023/12/13 10:56:05;;;;;;;0.38;0.20;;;10.60;90.60;;;;;;5009760;28;20080;-64
2023/12/13 10:58:31;;;;;;;0.32;0.20;;;10.60;90.70;;;;;;5009502;28;20679;-65
2023/12/13 11:01:01;;;;;;;0.63;0.17;;;10.60;90.60;;;;;;5008244;28;20072;-64
2023/12/13 11:03:41;;;;;;;0.40;0.40;;;10.60;90.60;;;;;;5002570;28;20041;-64
2023/12/13 11:06:11;;;;;;;0.75;0.50;;;10.70;90.60;;;;;;5009491;28;20028;-64
2023/12/13 11:08:40;;;;;;;0.35;0.20;;;10.60;90.60;;;;;;5006956;28;20034;-65
2023/12/13 11:11:09;;;;;;;0.40;0.30;;;10.70;90.50;;;;;;4995294;28;20057;-64
2023/12/13 11:13:50;;;;;;;1.65;0.50;;;10.60;90.60;;;;;;5008805;28;20042;-65
2023/12/13 11:16:26;;;;;;;3.42;0.50;;;10.60;90.40;;;;;;5009260;28;21306;-64
2023/12/13 11:18:55;;;;;;;0.50;0.28;;;10.70;90.40;;;;;;5000449;28;20120;-64
2023/12/13 11:21:32;;;;;;;1.75;0.40;;;10.60;90.40;;;;;;5006930;28;20034;-64
2023/12/13 11:24:13;;;;;;;0.30;0.30;;;10.70;90.60;;;;;;5006616;28;20042;-64
2023/12/13 11:26:42;;;;;;;0.52;0.28;;;10.70;90.20;;;;;;5004358;28;20049;-63
2023/12/13 11:29:20;;;;;;;0.63;0.30;;;10.70;90.40;;;;;;5003724;28;20034;-64
2023/12/13 11:31:57;;;;;;;0.20;0.20;;;10.70;90.20;;;;;;5004113;28;20389;-64
2023/12/13 11:34:32;;;;;;;0.70;0.20;;;10.70;90.10;;;;;;5008597;28;20032;-64
2023/12/13 11:37:07;;;;;;;0.30;0.20;;;10.70;90.00;;;;;;5009272;28;20112;-64
2023/12/13 11:39:35;;;;;;;0.35;0.30;;;10.70;90.10;;;;;;5003696;28;20026;-64
2023/12/13 11:42:07;;;;;;;0.30;0.30;;;10.70;90.20;;;;;;5002553;28;20038;-64
2023/12/13 11:44:34;;;;;;;0.30;0.30;;;10.70;90.20;;;;;;5008602;28;20041;-63
2023/12/13 11:47:12;;;;;;;1.33;0.30;;;10.60;90.20;;;;;;5009029;28;20354;-64
2023/12/13 11:49:39;;;;;;;0.35;0.30;;;10.60;90.20;;;;;;5007040;28;20030;-64
2023/12/13 11:52:06;;;;;;;0.50;0.30;;;10.70;90.30;;;;;;5008904;28;20492;-64
2023/12/13 11:54:33;;;;;;;0.30;0.30;;;10.60;90.30;;;;;;5008670;28;20042;-63
2023/12/13 11:56:58;;;;;;;0.50;0.40;;;10.70;90.30;;;;;;5008523;28;20044;-65
2023/12/13 11:59:25;;;;;;;3.42;0.60;;;10.70;90.30;;;;;;5008530;28;20041;-64
2023/12/13 12:01:51;;;;;;;0.90;0.20;;;10.70;90.20;;;;;;5005068;28;20045;-64
2023/12/13 12:04:18;;;;;;;0.40;0.22;;;10.70;90.10;;;;;;5008796;28;20408;-64
2023/12/13 12:06:58;;;;;;;0.45;0.35;;;10.70;90.10;;;;;;5008590;28;20026;-65
2023/12/13 12:09:24;;;;;;;0.80;0.32;;;10.70;89.90;;;;;;5007568;28;20124;-65
2023/12/13 12:11:54;;;;;;;1.98;0.60;;;10.70;90.00;;;;;;5002706;28;20036;-65
2023/12/13 12:14:30;;;;;;;1.15;0.47;;;10.80;90.00;;;;;;5008464;28;20034;-64
2023/12/13 12:16:59;;;;;;;1.27;0.20;;;10.80;90.10;;;;;;5003909;28;20042;-65
2023/12/13 12:19:27;;;;;;;0.60;0.30;;;10.80;90.10;;;;;;5003240;28;20026;-64
2023/12/13 12:21:53;;;;;;;1.20;0.20;;;10.80;90.00;;;;;;5003228;28;20042;-64
2023/12/13 12:24:18;;;;;;;0.75;0.40;;;10.80;90.30;;;;;;5008397;28;20113;-64
2023/12/13 12:26:44;;;;;;;0.40;0.40;;;10.90;89.70;;;;;;5011934;28;20117;-64
2023/12/13 12:29:10;;;;;;;0.47;0.38;;;10.90;89.60;;;;;;5012152;28;20046;-64
2023/12/13 12:31:37;;;;;;;0.65;0.30;;;10.90;89.60;;;;;;5004906;28;20030;-64
2023/12/13 12:34:03;;;;;;;0.65;0.40;;;10.90;89.60;;;;;;4994601;28;20101;-65
2023/12/13 12:36:28;;;;;;;0.50;0.40;;;10.90;89.50;;;;;;5011630;28;20156;-63
2023/12/13 12:38:54;;;;;;;0.60;0.40;;;10.90;89.50;;;;;;5012075;28;20026;-64
2023/12/13 12:41:22;;;;;;;0.60;0.40;;;10.90;89.30;;;;;;5011026;28;20096;-64
2023/12/13 12:43:49;;;;;;;0.60;0.38;;;10.90;89.30;;;;;;5000431;28;20555;-64
2023/12/13 12:46:16;;;;;;;0.40;0.40;;;10.90;89.20;;;;;;5011861;28;20045;-64
2023/12/13 12:48:42;;;;;;;0.93;0.50;;;10.90;89.20;;;;;;5011068;28;20025;-64
2023/12/13 12:51:08;;;;;;;1.75;1.10;;;11.00;89.20;;;;;;5011304;28;20080;-64